Time;durP1;ratioP1;P1;durP2;ratioP2;P2;SDS_P1;SDS_P2;PMS_P1;PMS_P2;Temp;Humidity;BMP_temperature;BMP_pressure;BME280_temperature;BME280_humidity;BME280_pressure;Samples;Min_cycle;Max_cycle;Signal;HPM_P1;HPM_P2
2021/04/03 00:00:21;;;;;;;35.23;18.47;;;;;;;-2.76;92.19;92585.28;1787143;79;21104;-77
2021/04/03 00:02:48;;;;;;;34.87;17.33;;;;;;;-2.77;92.31;92588.50;1787895;79;21040;-77
2021/04/03 00:05:16;;;;;;;29.63;16.27;;;;;;;-2.78;92.22;92586.96;1787664;79;21068;-77
2021/04/03 00:07:43;;;;;;;30.67;16.40;;;;;;;-2.84;92.00;92596.25;1787859;79;21198;-77
2021/04/03 00:10:21;;;;;;;26.03;15.27;;;;;;;-2.86;92.03;92598.45;1787768;79;22182;-77
2021/04/03 00:12:49;;;;;;;23.27;14.07;;;;;;;-2.89;92.05;92597.81;1787738;79;21100;-77
2021/04/03 00:15:16;;;;;;;29.90;16.30;;;;;;;-2.87;92.22;92587.59;1790281;78;21056;-76
2021/04/03 00:17:44;;;;;;;30.33;16.87;;;;;;;-2.81;92.26;92584.95;1816346;78;21131;-76
2021/04/03 00:20:14;;;;;;;25.13;14.70;;;;;;;-2.76;92.01;92586.06;1816289;77;21140;-76
2021/04/03 00:22:43;;;;;;;27.93;15.43;;;;;;;-2.70;91.81;92585.30;1787369;79;22238;-76
2021/04/03 00:25:14;;;;;;;29.63;16.07;;;;;;;-2.71;91.27;92577.87;1804099;77;21149;-76
2021/04/03 00:27:43;;;;;;;12.10;7.00;;;;;;;-2.73;91.01;92575.31;1829388;77;21125;-76
2021/04/03 00:30:15;;;;;;;13.13;6.90;;;;;;;-2.85;90.84;92565.44;1777515;79;21025;-78
2021/04/03 00:32:57;;;;;;;7.73;5.27;;;;;;;-2.96;90.92;92559.00;1816591;79;21116;-75
2021/04/03 00:35:27;;;;;;;6.73;4.07;;;;;;;-2.99;91.33;92553.02;1774743;78;21204;-77
2021/04/03 00:37:56;;;;;;;7.73;4.80;;;;;;;-3.00;91.07;92552.80;1824305;77;21105;-76
2021/04/03 00:40:29;;;;;;;19.93;12.20;;;;;;;-3.00;91.07;92541.59;1811600;77;21547;-76
2021/04/03 00:43:03;;;;;;;22.07;13.13;;;;;;;-2.98;91.25;92539.37;1777099;79;21056;-79
2021/04/03 00:45:32;;;;;;;29.07;14.93;;;;;;;-2.96;91.40;92539.05;1777231;79;21543;-76
2021/04/03 00:48:00;;;;;;;20.93;12.00;;;;;;;-2.98;91.41;92533.27;1777222;79;21658;-79
2021/04/03 00:50:32;;;;;;;22.63;12.33;;;;;;;-3.02;91.27;92526.52;1813085;77;21178;-79
2021/04/03 00:52:59;;;;;;;20.60;12.50;;;;;;;-3.06;91.28;92534.16;1785021;79;21073;-78
2021/04/03 00:55:27;;;;;;;18.13;12.43;;;;;;;-3.07;91.46;92534.72;1794317;79;21617;-78
2021/04/03 00:57:55;;;;;;;22.00;12.33;;;;;;;-3.07;91.52;92525.97;1818092;78;21061;-78
2021/04/03 01:00:23;;;;;;;16.17;10.00;;;;;;;-3.05;91.53;92517.09;1811818;77;21183;-79
2021/04/03 01:02:51;;;;;;;18.80;11.10;;;;;;;-3.04;91.56;92527.41;1848160;77;21602;-79
2021/04/03 01:05:23;;;;;;;20.90;10.73;;;;;;;-3.02;91.46;92527.07;1823361;77;21170;-79
2021/04/03 01:07:54;;;;;;;20.07;11.77;;;;;;;-3.07;91.27;92521.98;1837175;77;21119;-78
2021/04/03 01:10:29;;;;;;;17.87;10.53;;;;;;;-3.11;91.35;92513.11;1814247;77;21179;-79
2021/04/03 01:13:33;;;;;;;15.83;9.70;;;;;;;-3.10;91.31;92517.31;1842027;77;22906;-79
2021/04/03 01:16:32;;;;;;;18.87;10.63;;;;;;;-3.17;91.30;92504.00;1755695;81;21052;-79
2021/04/03 01:19:28;;;;;;;16.73;10.40;;;;;;;-3.19;91.04;92496.16;1778649;79;20949;-76
2021/04/03 01:22:23;;;;;;;15.80;8.20;;;;;;;-3.23;91.21;92485.41;1773653;79;21242;-76
2021/04/03 01:25:26;;;;;;;17.75;10.58;;;;;;;-3.23;91.28;92485.96;1806559;79;21086;-78
2021/04/03 01:28:07;;;;;;;9.93;5.40;;;;;;;-3.25;91.31;92478.30;1761622;79;21032;-78
2021/04/03 01:30:35;;;;;;;12.00;6.90;;;;;;;-3.19;91.34;92488.95;1769847;80;22099;-78
2021/04/03 01:33:11;;;;;;;10.43;7.10;;;;;;;-3.15;91.33;92479.75;1792305;78;21219;-78
2021/04/03 01:36:04;;;;;;;11.33;7.80;;;;;;;-3.12;91.25;92475.11;1809462;77;21164;-78
2021/04/03 01:38:36;;;;;;;13.03;8.97;;;;;;;-3.17;90.96;92468.10;1850152;75;21604;-78
2021/04/03 01:41:05;;;;;;;13.43;8.30;;;;;;;-3.23;91.04;92464.13;1881143;76;21264;-78
2021/04/03 01:43:39;;;;;;;13.77;8.97;;;;;;;-3.25;91.26;92470.32;1855044;77;21042;-78
2021/04/03 01:46:07;;;;;;;15.60;8.90;;;;;;;-3.29;91.38;92468.66;1850399;76;21360;-78
2021/04/03 01:48:37;;;;;;;18.27;10.50;;;;;;;-3.33;91.58;92465.89;1862938;76;21049;-78
2021/04/03 01:51:05;;;;;;;21.20;10.27;;;;;;;-3.33;91.70;92472.54;1852848;77;21098;-78
2021/04/03 01:53:32;;;;;;;15.90;10.30;;;;;;;-3.30;91.79;92458.59;1846939;77;21046;-78
2021/04/03 01:56:03;;;;;;;18.23;10.30;;;;;;;-3.30;91.57;92453.27;1838259;78;21050;-78
2021/04/03 01:58:33;;;;;;;14.87;8.33;;;;;;;-3.28;91.64;92448.94;1832198;78;21182;-78
2021/04/03 02:01:02;;;;;;;13.33;7.83;;;;;;;-3.29;91.27;92455.37;1818647;76;21496;-78
2021/04/03 02:03:32;;;;;;;10.87;6.30;;;;;;;-3.33;91.12;92454.48;1824728;77;21113;-78
2021/04/03 02:06:05;;;;;;;8.33;5.57;;;;;;;-3.34;91.04;92456.37;1852824;77;21120;-78
2021/04/03 02:08:34;;;;;;;7.17;5.37;;;;;;;-3.34;90.98;92451.61;1859520;76;21030;-79
2021/04/03 02:11:05;;;;;;;9.20;5.63;;;;;;;-3.38;90.72;92454.16;1862055;76;21354;-78
2021/04/03 02:13:34;;;;;;;9.20;4.80;;;;;;;-3.45;90.64;92456.59;1822580;78;21059;-78
2021/04/03 02:16:05;;;;;;;8.27;5.53;;;;;;;-3.47;90.85;92453.47;1847451;77;21057;-78
2021/04/03 02:18:34;;;;;;;7.10;4.20;;;;;;;-3.46;90.98;92461.13;1848621;77;21189;-79
2021/04/03 02:21:04;;;;;;;13.57;6.83;;;;;;;-3.47;90.92;92474.17;1823961;78;21498;-79
2021/04/03 02:23:33;;;;;;;9.70;6.73;;;;;;;-3.51;90.67;92473.84;1825646;76;21356;-78
2021/04/03 02:26:03;;;;;;;11.87;7.20;;;;;;;-3.54;90.76;92477.16;1883276;76;21053;-78
2021/04/03 02:28:30;;;;;;;13.93;9.43;;;;;;;-3.50;90.91;92479.38;1823176;78;21130;-78
2021/04/03 02:30:58;;;;;;;18.90;10.67;;;;;;;-3.49;90.74;92477.73;1874791;76;21109;-79
2021/04/03 02:33:25;;;;;;;17.43;11.87;;;;;;;-3.52;90.71;92474.95;1867723;76;21462;-78
2021/04/03 02:35:54;;;;;;;17.30;11.23;;;;;;;-3.49;90.96;92483.60;1853078;77;22336;-79
2021/04/03 02:38:22;;;;;;;15.50;9.07;;;;;;;-3.49;90.83;92491.02;1848009;77;21359;-79
2021/04/03 02:40:54;;;;;;;12.30;7.20;;;;;;;-3.53;90.55;92504.75;1836123;78;21497;-78
2021/04/03 02:43:51;;;;;;;12.50;7.73;;;;;;;-3.60;90.11;92518.34;1883911;76;21113;-77
2021/04/03 02:46:31;;;;;;;;;;;;;;;-3.64;90.15;92524.87;1860117;76;21568;-78
2021/04/03 02:49:02;;;;;;;15.70;9.67;;;;;;;-3.68;89.90;92510.69;1879042;76;21421;-78
2021/04/03 02:51:35;;;;;;;15.77;9.53;;;;;;;-3.77;90.05;92505.44;1866632;76;21054;-78
2021/04/03 02:54:07;;;;;;;11.17;7.20;;;;;;;-3.77;90.53;92502.02;1866758;76;21094;-80
2021/04/03 02:56:37;;;;;;;7.50;4.27;;;;;;;-3.75;90.40;92503.80;1880007;76;20911;-79
2021/04/03 02:59:05;;;;;;;4.93;3.17;;;;;;;-3.77;89.79;92492.72;1822652;77;21054;-79
2021/04/03 03:01:33;;;;;;;7.17;3.47;;;;;;;-3.86;89.69;92478.75;1849829;77;21330;-79
2021/04/03 03:04:03;;;;;;;3.27;2.67;;;;;;;-3.90;90.17;92483.95;1840744;77;21079;-79
2021/04/03 03:06:33;;;;;;;3.43;2.70;;;;;;;-3.86;90.48;92480.86;1835056;77;21102;-79
2021/04/03 03:09:04;;;;;;;4.40;3.00;;;;;;;-3.82;90.59;92474.34;1851266;76;21030;-79
2021/04/03 03:11:34;;;;;;;3.80;2.90;;;;;;;-3.83;90.62;92469.58;1881409;76;21838;-78
2021/04/03 03:14:03;;;;;;;5.20;2.70;;;;;;;-3.83;90.85;92471.47;1823217;77;21554;-78
2021/04/03 03:16:32;;;;;;;5.23;2.40;;;;;;;-3.83;91.14;92470.91;1849969;77;20931;-77
2021/04/03 03:19:00;;;;;;;2.53;2.33;;;;;;;-3.78;91.51;92465.93;1841387;77;21098;-78
2021/04/03 03:21:28;;;;;;;1.70;1.60;;;;;;;-3.72;91.34;92454.00;1802018;76;21539;-78
2021/04/03 03:23:56;;;;;;;1.97;1.77;;;;;;;-3.73;90.71;92446.56;1877382;76;21045;-78
2021/04/03 03:26:26;;;;;;;2.30;1.50;;;;;;;-3.79;90.41;92443.13;1854692;77;21801;-78
2021/04/03 03:28:54;;;;;;;2.70;1.60;;;;;;;-3.86;90.53;92446.33;1849971;77;21055;-78
2021/04/03 03:31:22;;;;;;;4.87;3.00;;;;;;;-3.86;90.82;92447.66;1874586;76;21117;-78
2021/04/03 03:33:50;;;;;;;7.03;4.27;;;;;;;-3.84;90.87;92450.73;1860221;76;21130;-78
2021/04/03 03:36:20;;;;;;;2.40;1.57;;;;;;;-3.80;90.90;92448.20;1845452;77;21114;-78
2021/04/03 03:38:48;;;;;;;1.90;1.80;;;;;;;-3.78;90.84;92443.35;1842661;77;21352;-77
2021/04/03 03:41:18;;;;;;;6.53;4.20;;;;;;;-3.79;90.86;92437.27;1837392;77;21552;-78
2021/04/03 03:43:47;;;;;;;11.90;7.07;;;;;;;-3.71;91.07;92442.26;1837851;77;21142;-76
2021/04/03 03:46:14;;;;;;;13.67;9.80;;;;;;;-3.67;90.97;92437.28;1823069;78;21059;-77
2021/04/03 03:48:43;;;;;;;17.30;10.00;;;;;;;-3.68;90.73;92440.28;1850718;76;21102;-77
2021/04/03 03:51:11;;;;;;;17.03;10.33;;;;;;;-3.70;90.74;92436.61;1860032;76;22611;-78
2021/04/03 03:53:41;;;;;;;18.63;11.40;;;;;;;-3.69;90.85;92428.85;1822247;76;21460;-78
2021/04/03 03:56:08;;;;;;;22.23;10.80;;;;;;;-3.63;90.93;92433.97;1879258;76;21082;-78
2021/04/03 03:58:38;;;;;;;19.33;11.83;;;;;;;-3.61;90.74;92445.03;1851935;76;21097;-78
2021/04/03 04:01:06;;;;;;;24.83;13.60;;;;;;;-3.63;90.66;92454.67;1869107;76;21026;-78
2021/04/03 04:03:35;;;;;;;24.93;14.33;;;;;;;-3.66;90.58;92469.94;1865494;76;22332;-78
2021/04/03 04:06:05;;;;;;;24.20;12.93;;;;;;;-3.69;90.54;92475.91;1847072;77;21134;-78
2021/04/03 04:08:33;;;;;;;25.17;12.30;;;;;;;-3.69;90.75;92470.59;1843335;77;21082;-78
2021/04/03 04:11:02;;;;;;;27.70;15.03;;;;;;;-3.68;90.82;92467.62;1838264;77;21042;-78
2021/04/03 04:13:30;;;;;;;23.53;12.50;;;;;;;-3.65;90.80;92458.20;1867441;76;21132;-78
2021/04/03 04:15:58;;;;;;;26.80;13.70;;;;;;;-3.62;90.79;92454.88;1860052;76;21198;-77
2021/04/03 04:18:26;;;;;;;25.20;13.10;;;;;;;-3.61;90.62;92450.34;1845277;77;21572;-78
2021/04/03 04:20:55;;;;;;;18.97;11.13;;;;;;;-3.61;90.42;92444.50;1842120;77;21480;-78
2021/04/03 04:23:25;;;;;;;18.73;9.67;;;;;;;-3.55;90.05;92449.03;1834339;78;21098;-78
2021/04/03 04:25:54;;;;;;;13.57;9.07;;;;;;;-3.52;89.64;92452.36;1867452;76;21118;-78
2021/04/03 04:28:23;;;;;;;11.33;7.17;;;;;;;-3.54;89.50;92457.22;1853582;76;21117;-78
2021/04/03 04:30:50;;;;;;;12.17;6.93;;;;;;;-3.56;89.40;92446.94;1840135;77;21185;-78
2021/04/03 04:33:18;;;;;;;12.83;8.60;;;;;;;-3.54;89.75;92452.68;1844088;77;21118;-78
2021/04/03 04:35:47;;;;;;;11.97;6.93;;;;;;;-3.44;90.23;92468.20;1841199;77;21569;-78
2021/04/03 04:38:16;;;;;;;9.50;6.67;;;;;;;-3.32;90.48;92471.42;1837546;78;21047;-78
2021/04/03 04:40:45;;;;;;;10.70;6.13;;;;;;;-3.20;90.30;92466.66;1821035;78;21360;-78
2021/04/03 04:43:14;;;;;;;8.40;5.70;;;;;;;-3.12;90.15;92472.98;1856847;76;21548;-78
2021/04/03 04:45:43;;;;;;;13.87;7.40;;;;;;;-3.03;90.27;92474.43;1866490;76;21034;-78
2021/04/03 04:48:12;;;;;;;21.40;12.47;;;;;;;-2.92;89.98;92472.66;1854417;76;21465;-79
2021/04/03 04:50:40;;;;;;;10.43;6.73;;;;;;;-2.85;89.36;92471.55;1879107;76;21219;-78
2021/04/03 04:53:08;;;;;;;13.83;9.17;;;;;;;-2.81;89.06;92466.55;1849233;76;21347;-78
2021/04/03 04:55:37;;;;;;;22.63;12.33;;;;;;;-2.79;88.76;92464.31;1871686;76;21153;-78
2021/04/03 04:58:05;;;;;;;22.63;13.53;;;;;;;-2.74;88.58;92467.33;1845867;76;21059;-78
2021/04/03 05:00:33;;;;;;;22.77;13.80;;;;;;;-2.75;88.19;92473.73;1835819;76;21066;-78
2021/04/03 05:03:02;;;;;;;24.50;13.33;;;;;;;-2.79;87.91;92474.95;1872863;76;21050;-78
2021/04/03 05:05:29;;;;;;;14.93;8.67;;;;;;;-2.86;87.89;92478.73;1816997;79;21348;-78
2021/04/03 05:07:56;;;;;;;10.93;6.70;;;;;;;-2.86;88.26;92477.41;1870786;76;21129;-78
2021/04/03 05:10:24;;;;;;;9.97;6.13;;;;;;;-2.80;88.40;92482.73;1839540;76;21047;-77
2021/04/03 05:12:51;;;;;;;6.03;4.23;;;;;;;-2.65;88.49;92472.52;1842051;76;21515;-78
2021/04/03 05:15:18;;;;;;;9.27;5.57;;;;;;;-2.17;89.46;92475.61;1868193;76;21106;-79
2021/04/03 05:17:46;;;;;;;6.20;3.97;;;;;;;-1.43;89.14;92477.36;1816995;78;21324;-78
2021/04/03 05:20:13;;;;;;;8.07;5.23;;;;;;;-0.65;89.05;92476.35;1876384;76;21150;-78
2021/04/03 05:22:41;;;;;;;12.05;6.42;;;;;;;-0.02;87.43;92472.16;1857018;76;21144;-79
2021/04/03 05:25:12;;;;;;;16.60;9.95;;;;;;;0.48;86.24;92465.08;1841127;77;21136;-78
2021/04/03 05:27:40;;;;;;;7.83;4.62;;;;;;;0.91;83.01;92466.61;1844110;77;21524;-79
2021/04/03 05:30:08;;;;;;;6.55;3.15;;;;;;;1.28;81.66;92466.59;1845773;77;21325;-79
2021/04/03 05:32:36;;;;;;;7.83;4.50;;;;;;;1.73;79.37;92462.27;1830027;78;21122;-79
2021/04/03 05:35:05;;;;;;;9.65;6.62;;;;;;;2.01;76.71;92472.03;1819065;78;21173;-79
2021/04/03 05:37:33;;;;;;;6.83;4.37;;;;;;;2.23;75.87;92470.39;1849775;76;21492;-79
2021/04/03 05:40:02;;;;;;;8.55;4.20;;;;;;;2.46;74.69;92478.88;1866792;76;21093;-79
2021/04/03 05:42:33;;;;;;;5.33;3.45;;;;;;;2.52;73.59;92484.91;1852175;76;21749;-79
2021/04/03 05:45:03;;;;;;;7.00;4.03;;;;;;;2.41;72.28;92479.98;1868449;76;21588;-78
2021/04/03 05:47:34;;;;;;;8.58;3.83;;;;;;;2.19;72.24;92486.44;1799168;79;21534;-78
2021/04/03 05:50:04;;;;;;;5.58;3.98;;;;;;;2.00;72.81;92483.90;1871573;76;21034;-77
2021/04/03 05:52:34;;;;;;;9.58;5.33;;;;;;;1.83;72.74;92482.52;1867483;76;21133;-77
2021/04/03 05:55:02;;;;;;;10.63;8.73;;;;;;;1.74;73.21;92484.70;1853051;77;22093;-78
2021/04/03 05:57:30;;;;;;;18.95;11.38;;;;;;;1.58;72.89;92471.47;1847731;77;21278;-77
2021/04/03 05:59:57;;;;;;;15.23;10.48;;;;;;;1.32;72.45;92473.57;1838368;78;21165;-77
2021/04/03 06:02:24;;;;;;;17.50;11.43;;;;;;;1.00;73.40;92469.61;1833139;77;21020;-77
2021/04/03 06:04:52;;;;;;;19.92;13.53;;;;;;;0.77;74.67;92478.98;1812896;78;21478;-77
2021/04/03 06:07:21;;;;;;;19.73;13.72;;;;;;;0.58;75.76;92494.51;1843607;76;21054;-77
2021/04/03 06:09:49;;;;;;;16.20;10.60;;;;;;;0.43;76.50;92481.44;1877561;76;21113;-77
2021/04/03 06:12:42;;;;;;;16.82;11.45;;;;;;;0.31;76.91;92477.02;1853982;77;21185;-77
2021/04/03 06:15:14;;;;;;;17.10;10.90;;;;;;;0.19;77.92;92482.52;1849946;77;21097;-77
2021/04/03 06:17:44;;;;;;;14.98;8.83;;;;;;;0.11;78.34;92489.59;1768985;81;21133;-77
2021/04/03 06:20:11;;;;;;;12.95;8.45;;;;;;;0.06;78.78;92485.87;1793934;78;21557;-77
2021/04/03 06:22:47;;;;;;;12.47;8.95;;;;;;;0.07;79.50;92475.39;1797323;78;21154;-77
2021/04/03 06:25:15;;;;;;;14.38;7.90;;;;;;;0.12;79.57;92457.75;1796742;76;21028;-77
2021/04/03 06:27:43;;;;;;;18.55;11.03;;;;;;;0.19;79.60;92457.12;1825018;78;21574;-77
2021/04/03 06:30:30;;;;;;;19.48;10.13;;;;;;;0.29;80.34;92467.79;1769562;81;21101;-77
2021/04/03 06:33:17;;;;;;;18.52;10.72;;;;;;;0.44;80.90;92469.03;1802524;79;22626;-76
2021/04/03 06:35:45;;;;;;;17.98;11.22;;;;;;;0.60;80.17;92460.12;1754040;81;21188;-77
2021/04/03 06:38:24;;;;;;;16.67;10.13;;;;;;;0.79;80.41;92466.00;1768451;80;21053;-77
2021/04/03 06:40:51;;;;;;;16.37;10.43;;;;;;;1.04;80.60;92467.19;1780078;80;21058;-77
2021/04/03 06:43:18;;;;;;;18.95;10.05;;;;;;;1.34;79.26;92465.16;1805587;78;21108;-77
2021/04/03 06:45:48;;;;;;;13.50;8.70;;;;;;;1.51;79.15;92459.88;1839370;77;21211;-78
2021/04/03 06:48:15;;;;;;;13.53;9.30;;;;;;;1.70;78.11;92456.51;1861550;76;21136;-78
2021/04/03 06:50:47;;;;;;;14.00;8.53;;;;;;;1.88;77.80;92447.37;1815233;77;21195;-78
2021/04/03 06:53:17;;;;;;;14.33;9.90;;;;;;;2.09;78.29;92453.55;1805066;79;21057;-78
2021/04/03 06:55:47;;;;;;;14.80;9.70;;;;;;;2.31;78.01;92444.41;1799543;79;21057;-79
2021/04/03 06:58:15;;;;;;;15.85;9.80;;;;;;;2.48;77.31;92440.36;1711913;82;21293;-78
2021/04/03 07:00:44;;;;;;;12.73;7.60;;;;;;;2.56;77.23;92441.43;1696365;80;21151;-79
2021/04/03 07:03:23;;;;;;;10.98;6.95;;;;;;;2.59;75.37;92438.56;1796738;79;21124;-79
2021/04/03 07:05:51;;;;;;;10.03;7.35;;;;;;;2.56;74.37;92429.92;1825987;78;21158;-79
2021/04/03 07:08:20;;;;;;;12.20;8.13;;;;;;;2.56;74.42;92435.30;1832425;78;21177;-79
2021/04/03 07:10:48;;;;;;;11.22;7.90;;;;;;;2.58;74.67;92434.34;1843352;77;21139;-79
2021/04/03 07:13:15;;;;;;;14.90;8.53;;;;;;;2.65;75.95;92437.87;1803826;79;21136;-79
2021/04/03 07:15:44;;;;;;;12.58;7.72;;;;;;;2.81;75.49;92436.86;1831319;78;21050;-79
2021/04/03 07:18:12;;;;;;;15.75;10.00;;;;;;;2.92;75.72;92426.41;1788474;80;21566;-80
2021/04/03 07:20:39;;;;;;;14.33;9.15;;;;;;;3.07;76.97;92431.91;1834406;77;21178;-80
2021/04/03 07:23:11;;;;;;;14.78;8.83;;;;;;;3.23;76.90;92430.30;1839495;78;22565;-81
2021/04/03 07:25:41;;;;;;;11.40;7.75;;;;;;;3.34;75.64;92444.00;1839496;77;21114;-82
2021/04/03 07:28:09;;;;;;;11.40;7.65;;;;;;;3.45;76.22;92438.71;1828384;77;21147;-81
2021/04/03 07:30:38;;;;;;;12.88;6.85;;;;;;;3.62;74.47;92431.92;1755340;80;21163;-81
2021/04/03 07:33:18;;;;;;;8.98;6.42;;;;;;;3.97;73.29;92432.68;1832062;78;21109;-81
2021/04/03 07:35:56;;;;;;;6.50;5.47;;;;;;;3.97;73.29;92432.68;1802730;78;21366;-81
2021/04/03 07:38:37;;;;;;;5.75;4.55;;;;;;;4.21;71.30;92430.47;1837657;78;21680;-81
2021/04/03 07:41:13;;;;;;;6.78;4.65;;;;;;;4.21;71.30;92430.47;1816088;78;21218;-82
2021/04/03 07:43:47;;;;;;;6.58;4.33;;;;;;;4.21;70.39;92435.85;1812672;78;21148;-76
2021/04/03 07:46:26;;;;;;;6.35;4.17;;;;;;;4.12;70.25;92435.63;1793124;79;21137;-81
2021/04/03 07:48:58;;;;;;;5.92;4.55;;;;;;;3.88;70.16;92426.89;1806493;76;21353;-81
2021/04/03 07:51:33;;;;;;;8.80;5.92;;;;;;;3.88;70.16;92426.89;1846091;77;21148;-79
2021/04/03 07:54:06;;;;;;;6.60;4.72;;;;;;;3.77;70.39;92427.41;1802641;77;21062;-80
2021/04/03 07:56:51;;;;;;;6.80;4.60;;;;;;;3.69;71.23;92432.55;1834118;77;21494;-79
2021/04/03 07:59:47;;;;;;;7.40;3.83;;;;;;;3.62;72.00;92432.69;1817162;77;21644;-80
2021/04/03 08:02:17;;;;;;;7.12;4.45;;;;;;;3.58;72.56;92438.62;1820902;78;21608;-80
2021/04/03 08:04:44;;;;;;;6.95;3.83;;;;;;;3.51;73.50;92435.12;1821740;78;21636;-80
2021/04/03 08:07:14;;;;;;;5.95;4.25;;;;;;;3.45;73.53;92431.99;1806125;78;21221;-80
2021/04/03 08:09:41;;;;;;;5.95;4.60;;;;;;;3.40;73.68;92434.46;1835061;78;21127;-80
2021/04/03 08:12:09;;;;;;;11.65;6.90;;;;;;;3.34;73.82;92437.86;1839993;78;21140;-80
2021/04/03 08:14:38;;;;;;;12.65;7.95;;;;;;;3.25;73.90;92438.19;1810872;78;21126;-80
2021/04/03 08:17:08;;;;;;;10.20;7.10;;;;;;;3.20;74.61;92436.41;1820411;78;21460;-80
2021/04/03 08:19:38;;;;;;;13.45;8.63;;;;;;;3.19;74.51;92437.56;1838708;77;21579;-80
2021/04/03 08:22:09;;;;;;;13.83;8.38;;;;;;;3.19;74.54;92438.33;1832175;78;21013;-80
2021/04/03 08:24:36;;;;;;;15.93;8.73;;;;;;;3.19;74.60;92445.62;1800547;79;21042;-80
2021/04/03 08:27:06;;;;;;;13.83;9.03;;;;;;;3.19;74.66;92446.96;1838673;77;22337;-80
2021/04/03 08:29:38;;;;;;;16.25;10.55;;;;;;;3.19;75.19;92438.91;1815258;77;21078;-80
2021/04/03 08:32:07;;;;;;;13.70;8.43;;;;;;;3.20;75.11;92447.16;1819199;78;21049;-80
2021/04/03 08:34:34;;;;;;;12.47;8.30;;;;;;;3.17;74.74;92446.00;1788196;78;21182;-80
2021/04/03 08:37:06;;;;;;;12.63;8.93;;;;;;;3.13;74.55;92443.86;1781205;78;21178;-79
2021/04/03 08:39:34;;;;;;;10.85;7.67;;;;;;;3.12;75.15;92448.47;1843769;77;21414;-80
2021/04/03 08:42:03;;;;;;;12.23;7.67;;;;;;;3.09;75.47;92453.81;1845921;77;21083;-80
2021/04/03 08:44:31;;;;;;;11.48;7.75;;;;;;;3.02;75.67;92446.45;1846148;77;21120;-80
2021/04/03 08:47:01;;;;;;;14.07;8.58;;;;;;;2.98;75.97;92450.26;1828463;77;21566;-80
2021/04/03 08:49:37;;;;;;;15.25;7.80;;;;;;;2.95;76.33;92450.42;1808657;77;21203;-80
2021/04/03 08:52:10;;;;;;;14.63;8.70;;;;;;;2.93;76.46;92456.72;1846320;77;21356;-80
2021/04/03 08:54:43;;;;;;;13.18;8.38;;;;;;;2.90;76.91;92453.45;1800336;79;21122;-80
2021/04/03 08:57:25;;;;;;;12.10;7.62;;;;;;;2.87;76.81;92461.67;1839688;77;21569;-80
2021/04/03 08:59:56;;;;;;;12.37;8.60;;;;;;;2.87;76.65;92454.19;1845981;77;21111;-80
2021/04/03 09:02:24;;;;;;;11.63;7.35;;;;;;;2.87;76.76;92448.81;1821228;77;21218;-80
2021/04/03 09:04:51;;;;;;;14.43;9.10;;;;;;;2.90;75.95;92451.53;1785936;78;21400;-80
2021/04/03 09:07:34;;;;;;;15.23;9.03;;;;;;;2.92;76.01;92459.98;1806331;78;21144;-80
2021/04/03 09:10:10;;;;;;;10.30;7.65;;;;;;;2.97;76.11;92460.78;1799538;79;21150;-80
2021/04/03 09:12:38;;;;;;;9.58;7.42;;;;;;;3.03;75.81;92466.02;1834593;78;21214;-79
2021/04/03 09:15:07;;;;;;;13.13;8.93;;;;;;;3.09;76.09;92476.64;1807415;78;21078;-80
2021/04/03 09:17:35;;;;;;;12.70;8.70;;;;;;;3.12;76.48;92478.02;1822775;78;21363;-80
2021/04/03 09:20:09;;;;;;;16.25;9.30;;;;;;;3.13;76.76;92481.47;1837443;78;21175;-80
2021/04/03 09:22:38;;;;;;;14.35;8.63;;;;;;;3.11;77.37;92488.53;1834943;77;21247;-80
2021/04/03 09:25:14;;;;;;;14.50;9.03;;;;;;;3.09;76.43;92490.84;1844963;77;21041;-79
2021/04/03 09:28:04;;;;;;;14.10;8.88;;;;;;;3.10;76.26;92480.86;1825483;78;21053;-80
2021/04/03 09:30:37;;;;;;;28.15;10.30;;;;;;;3.11;74.59;92476.45;1816921;78;21233;-80
2021/04/03 09:33:25;;;;;;;14.45;7.78;;;;;;;3.15;74.99;92485.31;1868983;76;21082;-80
2021/04/03 09:35:55;;;;;;;17.42;8.83;;;;;;;3.19;74.91;92483.23;1865947;76;21468;-80
2021/04/03 09:38:37;;;;;;;18.23;11.05;;;;;;;3.23;74.54;92485.37;1844325;77;21468;-80
2021/04/03 09:41:28;;;;;;;21.73;16.87;;;;;;;3.31;75.02;92489.11;1846356;77;21181;-81
2021/04/03 09:43:56;;;;;;;14.95;10.78;;;;;;;3.39;76.34;92493.39;1849386;76;21544;-81
2021/04/03 09:46:23;;;;;;;15.78;10.43;;;;;;;3.43;75.27;92484.02;1885123;76;21057;-80
2021/04/03 09:48:51;;;;;;;12.58;7.78;;;;;;;3.48;74.58;92482.31;1823239;78;21047;-81
2021/04/03 09:51:20;;;;;;;13.62;7.00;;;;;;;3.55;72.98;92493.13;1872561;76;21114;-81
2021/04/03 09:53:47;;;;;;;12.85;7.65;;;;;;;3.65;72.67;92493.78;1812574;77;21131;-81
2021/04/03 09:56:16;;;;;;;12.63;8.08;;;;;;;3.74;73.09;92489.99;1844560;76;21879;-81
2021/04/03 09:58:44;;;;;;;11.75;7.53;;;;;;;3.81;71.83;92492.73;1878020;76;21042;-81
2021/04/03 10:01:11;;;;;;;11.22;7.08;;;;;;;3.87;71.47;92493.91;1823370;78;21470;-82
2021/04/03 10:03:40;;;;;;;9.75;5.62;;;;;;;3.96;71.56;92489.55;1880569;76;21572;-82
2021/04/03 10:06:08;;;;;;;9.38;5.40;;;;;;;3.97;65.09;92486.48;1842586;76;21110;-82
2021/04/03 10:08:35;;;;;;;7.87;5.12;;;;;;;3.97;62.52;92483.02;1851532;76;21860;-83
2021/04/03 10:11:04;;;;;;;15.58;5.53;;;;;;;3.94;58.74;92485.11;1878543;76;21106;-82
2021/04/03 10:13:33;;;;;;;14.00;5.78;;;;;;;3.94;60.31;92489.14;1823008;77;21054;-81
2021/04/03 10:16:01;;;;;;;10.75;5.08;;;;;;;4.05;60.91;92483.25;1850098;77;21086;-82
2021/04/03 10:18:30;;;;;;;11.00;4.97;;;;;;;4.20;62.31;92476.80;1840307;77;21130;-82
2021/04/03 10:20:59;;;;;;;9.83;5.40;;;;;;;4.57;62.54;92473.10;1866075;76;21141;-82
2021/04/03 10:23:26;;;;;;;10.95;5.67;;;;;;;4.57;62.54;92443.48;1874502;76;21185;-82
2021/04/03 10:25:53;;;;;;;9.28;4.67;;;;;;;4.72;60.43;92465.84;1854524;77;21126;-82
2021/04/03 10:28:20;;;;;;;9.08;5.17;;;;;;;4.84;59.25;92472.20;1849977;77;21204;-82
2021/04/03 10:30:49;;;;;;;8.13;4.75;;;;;;;4.92;57.67;92472.99;1839476;77;21596;-82
2021/04/03 10:33:17;;;;;;;6.25;4.45;;;;;;;4.98;55.59;92484.37;1870681;76;22301;-80
2021/04/03 10:35:44;;;;;;;9.28;5.50;;;;;;;4.93;54.22;92476.67;1871466;76;21038;-82
2021/04/03 10:38:11;;;;;;;6.42;5.00;;;;;;;4.85;55.14;92479.13;1816179;76;21035;-81
2021/04/03 10:40:39;;;;;;;8.78;5.25;;;;;;;4.84;56.63;92478.94;1856510;77;21087;-82
2021/04/03 10:43:09;;;;;;;7.45;4.58;;;;;;;4.88;57.84;92481.06;1837857;78;21075;-83
2021/04/03 10:45:37;;;;;;;11.78;6.62;;;;;;;4.87;54.96;92474.14;1852741;77;22318;-82
2021/04/03 10:48:06;;;;;;;10.08;5.75;;;;;;;4.81;54.04;92480.50;1826976;77;21055;-81
2021/04/03 10:50:33;;;;;;;9.15;4.33;;;;;;;4.78;55.85;92488.56;1804325;79;21068;-83
2021/04/03 10:53:00;;;;;;;5.85;4.05;;;;;;;4.75;54.04;92487.39;1809881;76;21178;-83
2021/04/03 10:55:31;;;;;;;8.80;4.15;;;;;;;4.69;52.41;92483.52;1856529;77;21095;-82
2021/04/03 10:57:58;;;;;;;7.70;4.53;;;;;;;4.65;53.43;92486.02;1809106;76;21347;-83
2021/04/03 11:00:26;;;;;;;10.55;5.12;;;;;;;4.64;53.71;92475.82;1839769;76;21066;-82
2021/04/03 11:02:55;;;;;;;7.90;4.47;;;;;;;4.64;52.68;92483.89;1832702;77;21131;-84
2021/04/03 11:05:23;;;;;;;6.28;3.95;;;;;;;4.61;50.58;92484.65;1816310;77;21035;-82
2021/04/03 11:07:51;;;;;;;6.35;3.92;;;;;;;4.57;51.07;92484.64;1856169;77;21125;-81
2021/04/03 11:10:18;;;;;;;8.15;4.47;;;;;;;4.55;50.11;92488.30;1804333;79;21356;-82
2021/04/03 11:12:45;;;;;;;6.17;4.20;;;;;;;4.61;50.03;92490.80;1804192;79;21088;-81
2021/04/03 11:15:15;;;;;;;4.97;3.52;;;;;;;4.65;50.02;92476.59;1804214;79;21025;-79
2021/04/03 11:17:42;;;;;;;7.20;4.30;;;;;;;4.67;51.62;92488.53;1821236;76;21334;-81
2021/04/03 11:20:12;;;;;;;5.55;4.35;;;;;;;4.66;50.35;92482.92;1850238;77;21616;-82
2021/04/03 11:22:40;;;;;;;7.42;4.70;;;;;;;4.65;48.87;92487.36;1803157;79;21358;-82
2021/04/03 11:25:09;;;;;;;5.28;3.87;;;;;;;4.56;49.00;92495.22;1851352;76;21166;-83
2021/04/03 11:27:36;;;;;;;5.10;3.37;;;;;;;4.43;46.33;92497.27;1820565;77;21479;-80
2021/04/03 11:30:14;;;;;;;4.97;4.03;;;;;;;4.43;46.33;92497.27;1804271;79;21512;-82
2021/04/03 11:32:49;;;;;;;5.00;3.50;;;;;;;4.34;46.12;92494.36;1820004;77;21027;-82
2021/04/03 11:35:19;;;;;;;5.83;3.65;;;;;;;4.34;46.12;92494.36;1849424;77;21346;-81
2021/04/03 11:37:47;;;;;;;8.78;4.37;;;;;;;4.29;42.87;92496.66;1795665;80;21158;-81
2021/04/03 11:40:15;;;;;;;6.30;4.67;;;;;;;4.17;46.94;92489.65;1851961;77;21046;-83
2021/04/03 11:42:45;;;;;;;9.03;3.90;;;;;;;4.17;46.94;92489.65;1819273;76;21032;-81
2021/04/03 11:45:16;;;;;;;8.73;4.17;;;;;;;4.20;43.58;92489.48;1829490;77;21124;-80
2021/04/03 11:47:43;;;;;;;4.47;3.27;;;;;;;4.32;47.46;92491.26;1841973;77;21323;-84